createdAt,value
2022-12-07T00:00:20.266Z,102164.84
2022-12-07T00:02:21.982Z,102160.53
2022-12-07T00:04:23.694Z,102159.72
2022-12-07T00:06:25.879Z,102164.38
2022-12-07T00:08:28.130Z,102164.50
2022-12-07T00:10:29.806Z,102163.31
2022-12-07T00:12:31.548Z,102158.22
2022-12-07T00:14:33.349Z,102160.59
2022-12-07T00:16:36.331Z,102166.59
2022-12-07T00:18:38.571Z,102159.78
2022-12-07T00:20:40.199Z,102163.72
2022-12-07T00:22:41.825Z,102167.28
2022-12-07T00:24:43.477Z,102155.88
2022-12-07T00:26:46.348Z,102153.41
2022-12-07T00:28:59.502Z,102163.66
2022-12-07T00:31:09.569Z,102162.59
2022-12-07T00:33:15.970Z,102166.72
2022-12-07T00:35:17.678Z,102166.88
2022-12-07T00:37:19.442Z,102170.56
2022-12-07T00:39:21.103Z,102170.75
2022-12-07T00:41:25.260Z,102167.41
2022-12-07T00:43:28.052Z,102164.66
2022-12-07T00:45:29.782Z,102169.19
2022-12-07T00:47:31.560Z,102163.00
2022-12-07T00:49:33.304Z,102157.16
2022-12-07T00:51:34.909Z,102156.28
2022-12-07T00:53:41.367Z,102159.06
2022-12-07T00:55:44.490Z,102153.28
2022-12-07T00:57:46.162Z,102158.41
2022-12-07T00:59:47.821Z,102153.22
2022-12-07T01:01:49.785Z,102150.66
2022-12-07T01:03:51.925Z,102153.78
2022-12-07T01:05:55.575Z,102152.81
2022-12-07T01:07:57.368Z,102154.50
2022-12-07T01:09:59.498Z,102152.84
2022-12-07T01:12:01.569Z,102148.31
2022-12-07T01:14:03.607Z,102145.63
2022-12-07T01:16:07.084Z,102145.75
2022-12-07T01:18:09.512Z,102140.75
2022-12-07T01:20:11.921Z,102143.22
2022-12-07T01:22:13.604Z,102141.31
2022-12-07T01:24:15.288Z,102142.19
2022-12-07T01:26:21.633Z,102143.28
2022-12-07T01:28:23.536Z,102140.53
2022-12-07T01:30:25.325Z,102140.53
2022-12-07T01:32:27.982Z,102144.25
2022-12-07T01:34:29.626Z,102143.28
2022-12-07T01:36:36.620Z,102144.09
2022-12-07T01:38:38.251Z,102140.34
2022-12-07T01:40:39.926Z,102141.31
2022-12-07T01:42:41.583Z,102139.56
2022-12-07T01:45:27.531Z,102141.84
2022-12-07T01:47:29.403Z,102137.44
2022-12-07T01:49:41.876Z,102146.16
2022-12-07T01:51:45.685Z,102143.22
2022-12-07T01:53:47.512Z,102150.56
2022-12-07T01:55:53.686Z,102144.97
2022-12-07T01:57:56.781Z,102150.38
2022-12-07T01:59:59.977Z,102148.63
2022-12-07T02:02:05.314Z,102153.34
2022-12-07T02:04:07.513Z,102144.88
2022-12-07T02:06:13.364Z,102146.47
2022-12-07T02:08:15.545Z,102149.22
2022-12-07T02:10:23.673Z,102149.03
2022-12-07T02:12:26.393Z,102148.41
2022-12-07T02:14:28.111Z,102146.75
2022-12-07T02:16:51.656Z,102138.19
2022-12-07T02:19:00.846Z,102140.75
2022-12-07T02:21:05.171Z,102140.75
2022-12-07T02:23:38.144Z,102143.53
2022-12-07T02:25:39.544Z,102140.75
2022-12-07T02:31:17.006Z,102148.63
2022-12-07T02:33:34.313Z,102141.06
2022-12-07T02:35:57.000Z,102149.69
2022-12-07T02:38:07.492Z,102138.84
2022-12-07T02:40:40.677Z,102138.41
2022-12-07T02:42:48.399Z,102138.19
2022-12-07T02:44:51.562Z,102136.81
2022-12-07T02:47:02.227Z,102136.66
2022-12-07T02:49:05.024Z,102134.44
2022-12-07T02:51:06.819Z,102137.09
2022-12-07T02:53:44.731Z,102132.97
2022-12-07T02:55:46.747Z,102127.66
2022-12-07T02:58:17.427Z,102133.97
2022-12-07T03:00:21.214Z,102132.91
2022-12-07T03:02:53.298Z,102132.91
2022-12-07T03:05:32.013Z,102126.44
2022-12-07T03:08:03.721Z,102120.78
2022-12-07T03:10:21.020Z,102129.16
2022-12-07T03:12:45.420Z,102129.16
2022-12-07T03:14:57.979Z,102121.50
2022-12-07T03:17:05.708Z,102115.41
2022-12-07T03:19:12.480Z,102119.13
2022-12-07T03:21:20.257Z,102111.44
2022-12-07T03:23:26.346Z,102113.22
2022-12-07T03:25:29.315Z,102116.47
2022-12-07T03:27:40.395Z,102106.44
2022-12-07T03:29:48.764Z,102107.13
2022-12-07T03:31:59.984Z,102106.44
2022-12-07T03:34:04.612Z,102105.47
2022-12-07T03:36:12.451Z,102108.09
2022-12-07T03:38:23.076Z,102107.03
2022-12-07T03:40:35.608Z,102101.13
2022-12-07T03:42:37.526Z,102107.22
2022-12-07T03:44:41.288Z,102098.09
2022-12-07T03:46:52.427Z,102090.41
2022-12-07T03:49:28.816Z,102093.47
2022-12-07T03:51:41.684Z,102090.31
2022-12-07T03:53:53.551Z,102091.00
2022-12-07T03:55:57.160Z,102096.03
2022-12-07T03:58:04.000Z,102087.31
2022-12-07T04:00:08.737Z,102099.38
2022-12-07T04:02:14.315Z,102101.22
2022-12-07T04:04:16.013Z,102100.34
2022-12-07T04:06:17.701Z,102104.16
2022-12-07T04:08:19.543Z,102099.28
2022-12-07T04:10:21.641Z,102095.16
2022-12-07T04:12:23.748Z,102096.91
2022-12-07T04:14:25.625Z,102100.09
2022-12-07T04:16:27.310Z,102097.69
2022-12-07T04:18:29.003Z,102099.66
2022-12-07T04:20:30.845Z,102097.53
2022-12-07T04:22:32.790Z,102099.56
2022-12-07T04:24:34.897Z,102104.41
2022-12-07T04:26:36.690Z,102096.72
2022-12-07T04:28:38.362Z,102100.88
2022-12-07T04:30:40.043Z,102103.31
2022-12-07T04:32:41.703Z,102098.81
2022-12-07T04:34:43.379Z,102090.66
2022-12-07T04:36:46.037Z,102099.00
2022-12-07T04:38:48.323Z,102105.09
2022-12-07T04:40:49.964Z,102103.75
2022-12-07T04:42:51.579Z,102103.84
2022-12-07T04:44:53.383Z,102100.66
2022-12-07T04:46:55.847Z,102098.50
2022-12-07T04:48:58.120Z,102105.97
2022-12-07T04:50:59.842Z,102098.50
2022-12-07T04:53:01.528Z,102099.28
2022-12-07T04:55:03.359Z,102095.94
2022-12-07T04:57:05.073Z,102095.25
2022-12-07T04:59:06.874Z,102095.94
2022-12-07T05:01:08.827Z,102095.75
2022-12-07T05:03:10.567Z,102097.44
2022-12-07T05:05:12.340Z,102099.50
2022-12-07T05:07:14.005Z,102106.22
2022-12-07T05:09:15.741Z,102098.03
2022-12-07T05:11:35.919Z,102095.56
2022-12-07T05:13:37.628Z,102095.75
2022-12-07T05:15:39.279Z,102089.56
2022-12-07T05:17:41.205Z,102097.53
2022-12-07T05:19:42.873Z,102090.75
2022-12-07T05:21:44.489Z,102088.19
2022-12-07T05:23:46.276Z,102083.00
2022-12-07T05:25:48.056Z,102087.22
2022-12-07T05:27:49.752Z,102081.50
2022-12-07T05:29:51.916Z,102073.91
2022-12-07T05:31:53.629Z,102075.88
2022-12-07T05:33:55.459Z,102079.31
2022-12-07T05:35:57.252Z,102081.75
2022-12-07T05:37:59.424Z,102078.44
2022-12-07T05:40:01.431Z,102082.75
2022-12-07T05:42:15.881Z,102081.00
2022-12-07T05:44:17.745Z,102078.06
2022-12-07T05:46:19.445Z,102078.16
2022-12-07T05:48:21.150Z,102079.13
2022-12-07T05:50:22.879Z,102078.22
2022-12-07T05:52:29.621Z,102082.63
2022-12-07T05:54:31.432Z,102077.34
2022-12-07T05:56:33.182Z,102075.59
2022-12-07T05:58:53.752Z,102078.22
2022-12-07T06:00:57.056Z,102077.44
2022-12-07T06:02:58.847Z,102064.00
2022-12-07T06:05:00.623Z,102068.97
2022-12-07T06:07:02.577Z,102073.31
2022-12-07T06:09:04.666Z,102070.56
2022-12-07T06:11:25.004Z,102073.13
2022-12-07T06:13:26.807Z,102068.97
2022-12-07T06:15:28.618Z,102069.78
2022-12-07T06:17:30.351Z,102080.78
2022-12-07T06:19:32.281Z,102074.00
2022-12-07T06:21:34.041Z,102072.25
2022-12-07T06:23:35.722Z,102082.56
2022-12-07T06:25:37.419Z,102070.88
2022-12-07T06:27:39.114Z,102077.66
2022-12-07T06:29:40.813Z,102071.59
2022-12-07T06:31:42.681Z,102078.38
2022-12-07T06:33:44.495Z,102073.19
2022-12-07T06:35:46.116Z,102074.84
2022-12-07T06:37:48.337Z,102078.28
2022-12-07T06:39:50.105Z,102080.75
2022-12-07T06:41:55.400Z,102081.03
2022-12-07T06:43:57.161Z,102084.53
2022-12-07T06:45:58.830Z,102089.66
2022-12-07T06:48:00.635Z,102092.19
2022-12-07T06:50:02.787Z,102097.13
2022-12-07T06:52:06.730Z,102089.78
2022-12-07T06:54:12.569Z,102094.66
2022-12-07T06:56:14.416Z,102097.44
2022-12-07T06:58:16.393Z,102090.66
2022-12-07T07:00:21.718Z,102091.84
2022-12-07T07:02:49.327Z,102101.28
2022-12-07T07:04:51.040Z,102108.75
2022-12-07T07:06:58.161Z,102095.91
2022-12-07T07:09:02.007Z,102103.66
2022-12-07T07:11:34.078Z,102095.47
2022-12-07T07:13:36.194Z,102103.22
2022-12-07T07:15:39.944Z,102106.56
2022-12-07T07:17:41.621Z,102094.50
2022-12-07T07:19:43.332Z,102091.84
2022-12-07T07:21:45.028Z,102100.47
2022-12-07T07:23:46.661Z,102092.81
2022-12-07T07:25:48.673Z,102098.53
2022-12-07T07:27:50.388Z,102090.66
2022-12-07T07:29:52.072Z,102089.13
2022-12-07T07:31:53.696Z,102093.44
2022-12-07T07:33:55.472Z,102086.19
2022-12-07T07:35:57.462Z,102087.13
2022-12-07T07:37:59.327Z,102094.97
2022-12-07T07:40:01.356Z,102092.44
2022-12-07T07:42:03.173Z,102094.81
2022-12-07T07:44:05.131Z,102096.66
2022-12-07T07:46:06.822Z,102099.50
2022-12-07T07:48:08.758Z,102104.72
2022-12-07T07:50:10.935Z,102109.44
2022-12-07T07:52:12.745Z,102106.50
2022-12-07T07:54:14.368Z,102110.16
2022-12-07T07:56:16.062Z,102107.63
2022-12-07T07:58:17.800Z,102107.78
2022-12-07T08:00:19.911Z,102105.16
2022-12-07T08:02:30.770Z,102108.50
2022-12-07T08:04:32.391Z,102112.41
2022-12-07T08:06:34.090Z,102109.31
2022-12-07T08:08:35.740Z,102105.75
2022-12-07T08:10:38.107Z,102113.72
2022-12-07T08:13:02.750Z,102108.72
2022-12-07T08:15:04.806Z,102110.38
2022-12-07T08:17:06.672Z,102106.84
2022-12-07T08:19:08.756Z,102109.41
2022-12-07T08:21:14.895Z,102109.78
2022-12-07T08:23:16.762Z,102113.31
2022-12-07T08:25:18.901Z,102105.66
2022-12-07T08:27:20.636Z,102108.44
2022-12-07T08:29:22.499Z,102113.31
2022-12-07T08:31:24.304Z,102106.16
2022-12-07T08:33:26.284Z,102105.28
2022-12-07T08:35:28.239Z,102100.88
2022-12-07T08:37:29.998Z,102105.44
2022-12-07T08:39:32.583Z,102104.38
2022-12-07T08:41:34.909Z,102104.47
2022-12-07T08:43:37.146Z,102107.31
2022-12-07T08:45:41.662Z,102103.50
2022-12-07T08:47:49.863Z,102105.28
2022-12-07T08:49:54.114Z,102106.25
2022-12-07T08:51:56.487Z,102101.53
2022-12-07T08:54:01.563Z,102099.59
2022-12-07T08:56:03.686Z,102104.50
2022-12-07T08:58:05.499Z,102101.84
2022-12-07T09:00:08.577Z,102106.84
2022-12-07T09:02:10.282Z,102105.66
2022-12-07T09:04:12.311Z,102106.63
2022-12-07T09:06:14.154Z,102104.09
2022-12-07T09:08:16.533Z,102094.09
2022-12-07T09:10:18.838Z,102089.94
2022-12-07T09:12:28.185Z,102090.56
2022-12-07T09:14:29.885Z,102093.28
2022-12-07T09:16:32.078Z,102094.38
2022-12-07T09:18:33.903Z,102091.91
2022-12-07T09:20:35.739Z,102088.50
2022-12-07T09:22:37.490Z,102092.31
2022-12-07T09:24:39.232Z,102093.72
2022-12-07T09:26:41.774Z,102087.03
2022-12-07T09:28:43.531Z,102086.22
2022-12-07T09:31:21.488Z,102088.09
2022-12-07T09:33:11.120Z,102091.16
2022-12-07T09:35:12.775Z,102093.88
2022-12-07T09:37:14.488Z,102084.19
2022-12-07T09:39:16.187Z,102088.59
2022-12-07T09:41:18.185Z,102081.13
2022-12-07T09:43:23.169Z,102086.22
2022-12-07T09:45:33.555Z,102084.47
2022-12-07T09:47:35.397Z,102081.13
2022-12-07T09:49:37.127Z,102085.53
2022-12-07T09:51:38.808Z,102082.50
2022-12-07T09:53:40.996Z,102079.06
2022-12-07T09:55:44.232Z,102081.53
2022-12-07T09:57:46.205Z,102084.34
2022-12-07T09:59:47.917Z,102083.38
2022-12-07T10:01:51.031Z,102083.97
2022-12-07T10:04:07.758Z,102088.38
2022-12-07T10:06:13.703Z,102084.13
2022-12-07T10:08:18.307Z,102085.81
2022-12-07T10:10:35.250Z,102087.44
2022-12-07T10:13:20.428Z,102080.09
2022-12-07T10:15:22.458Z,102075.78
2022-12-07T10:17:39.593Z,102073.00
2022-12-07T10:19:41.250Z,102068.91
2022-12-07T10:22:05.431Z,102057.97
2022-12-07T10:24:20.443Z,102066.00
2022-12-07T10:26:29.328Z,102055.78
2022-12-07T10:28:41.870Z,102048.78
2022-12-07T10:31:17.464Z,102042.78
2022-12-07T10:33:51.205Z,102044.22
2022-12-07T10:35:52.838Z,102036.84
2022-12-07T10:37:56.892Z,102029.03
2022-12-07T10:39:58.709Z,102037.75
2022-12-07T10:42:02.888Z,102034.47
2022-12-07T10:44:04.566Z,102036.44
2022-12-07T10:46:30.233Z,102032.91
2022-12-07T10:49:22.109Z,102020.66
2022-12-07T10:51:34.683Z,102023.84
2022-12-07T10:54:02.212Z,102022.72
2022-12-07T10:56:31.908Z,102020.16
2022-12-07T10:59:11.170Z,102025.59
2022-12-07T11:01:32.344Z,102021.44
2022-12-07T11:04:11.634Z,102025.16
2022-12-07T11:06:21.696Z,102024.47
2022-12-07T11:08:47.730Z,102019.50
2022-12-07T11:11:01.035Z,102019.34
2022-12-07T11:13:28.471Z,102001.78
2022-12-07T11:15:41.325Z,102000.19
2022-12-07T11:18:04.810Z,101998.31
2022-12-07T11:20:36.013Z,102001.50
2022-12-07T11:22:51.646Z,101998.22
2022-12-07T11:25:03.755Z,101992.97
2022-12-07T11:27:37.393Z,101984.19
2022-12-07T11:29:57.562Z,101980.56
2022-12-07T11:32:36.509Z,101972.81
2022-12-07T11:35:09.319Z,101966.16
2022-12-07T11:37:17.976Z,101969.63
2022-12-07T11:39:19.579Z,101970.41
2022-12-07T11:41:29.264Z,101964.72
2022-12-07T11:43:36.397Z,101966.69
2022-12-07T11:45:43.387Z,101962.75
2022-12-07T11:48:03.976Z,101961.38
2022-12-07T11:50:30.639Z,101959.44
2022-12-07T11:52:41.130Z,101951.25
2022-12-07T11:54:45.689Z,101960.75
2022-12-07T11:56:51.106Z,101961.00
2022-12-07T11:59:00.420Z,101960.44
2022-12-07T12:01:20.351Z,101955.41
2022-12-07T12:03:35.433Z,101955.19
2022-12-07T12:05:37.118Z,101947.56
2022-12-07T12:10:17.245Z,101938.34
2022-12-07T12:15:22.749Z,101911.47
2022-12-07T12:18:02.022Z,101914.25
2022-12-07T12:20:26.793Z,101903.22
2022-12-07T12:22:44.339Z,101907.13
2022-12-07T12:24:53.321Z,101900.72
2022-12-07T12:27:04.249Z,101898.78
2022-12-07T12:29:24.471Z,101896.63
2022-12-07T12:31:29.189Z,101899.31
2022-12-07T12:33:32.952Z,101897.97
2022-12-07T12:35:37.892Z,101894.09
2022-12-07T12:37:41.667Z,101893.50
2022-12-07T12:40:31.950Z,101885.38
2022-12-07T12:42:48.258Z,101885.84
2022-12-07T12:45:20.563Z,101882.69
2022-12-07T12:47:59.186Z,101877.84
2022-12-07T12:50:22.484Z,101877.28
2022-12-07T12:52:55.501Z,101874.34
2022-12-07T12:55:09.313Z,101870.81
2022-12-07T12:57:28.299Z,101868.72
2022-12-07T12:59:35.535Z,101868.97
2022-12-07T13:01:37.355Z,101857.75
2022-12-07T13:03:39.143Z,101865.34
2022-12-07T13:05:41.071Z,101852.53
2022-12-07T13:07:48.164Z,101852.63
2022-12-07T13:09:50.340Z,101856.88
2022-12-07T13:12:04.073Z,101848.94
2022-12-07T13:14:41.450Z,101846.13
2022-12-07T13:17:05.263Z,101839.25
2022-12-07T13:19:42.197Z,101833.59
2022-12-07T13:21:45.515Z,101835.75
2022-12-07T13:23:47.167Z,101833.13
2022-12-07T13:26:03.131Z,101828.72
2022-12-07T13:28:21.541Z,101828.72
2022-12-07T13:30:24.554Z,101831.03
2022-12-07T13:32:41.556Z,101829.53
2022-12-07T13:34:43.674Z,101822.25
2022-12-07T13:36:45.742Z,101815.44
2022-12-07T13:38:56.616Z,101822.25
2022-12-07T13:41:02.250Z,101811.16
2022-12-07T13:43:16.982Z,101808.34
2022-12-07T13:45:51.247Z,101818.06
2022-12-07T13:48:00.041Z,101816.16
2022-12-07T13:50:01.935Z,101809.66
2022-12-07T13:55:00.619Z,101791.44
2022-12-07T13:57:02.760Z,101793.72
2022-12-07T13:59:13.502Z,101786.94
2022-12-07T14:01:15.880Z,101786.13
2022-12-07T14:03:18.377Z,101790.34
2022-12-07T14:05:28.963Z,101780.81
2022-12-07T14:07:30.920Z,101778.66
2022-12-07T14:09:32.894Z,101787.25
2022-12-07T14:11:35.002Z,101783.75
2022-12-07T14:13:42.131Z,101777.03
2022-12-07T14:15:44.238Z,101773.00
2022-12-07T14:17:55.149Z,101777.25
2022-12-07T14:19:58.746Z,101778.00
2022-12-07T14:22:09.843Z,101767.94
2022-12-07T14:24:12.558Z,101771.72
2022-12-07T14:26:16.098Z,101766.00
2022-12-07T14:28:30.043Z,101766.59
2022-12-07T14:30:35.345Z,101755.66
2022-12-07T14:32:39.118Z,101759.63
2022-12-07T14:34:41.093Z,101757.53
2022-12-07T14:36:43.197Z,101753.75
2022-12-07T14:38:45.243Z,101755.16
2022-12-07T14:40:47.468Z,101756.22
2022-12-07T14:42:54.658Z,101753.50
2022-12-07T14:44:57.439Z,101750.81
2022-12-07T14:49:36.777Z,101742.91
2022-12-07T14:54:06.943Z,101735.59
2022-12-07T14:56:09.399Z,101733.81
2022-12-07T14:58:21.685Z,101740.44
2022-12-07T15:00:25.969Z,101732.44
2022-12-07T15:02:28.018Z,101735.75
2022-12-07T15:04:30.101Z,101739.13
2022-12-07T15:06:32.230Z,101735.09
2022-12-07T15:08:34.756Z,101739.69
2022-12-07T15:10:39.845Z,101727.56
2022-12-07T15:12:41.850Z,101735.59
2022-12-07T15:14:43.848Z,101729.53
2022-12-07T15:17:07.916Z,101724.91
2022-12-07T15:19:31.347Z,101724.63
2022-12-07T15:21:33.375Z,101725.19
2022-12-07T15:23:35.437Z,101725.34
2022-12-07T15:25:37.461Z,101720.94
2022-12-07T15:27:39.413Z,101719.88
2022-12-07T15:29:41.421Z,101721.44
2022-12-07T15:31:58.920Z,101723.41
2022-12-07T15:34:01.106Z,101724.41
2022-12-07T15:36:03.099Z,101720.72
2022-12-07T15:38:05.160Z,101719.63
2022-12-07T15:40:08.397Z,101722.81
2022-12-07T15:42:10.588Z,101722.00
2022-12-07T15:44:30.721Z,101722.59
2022-12-07T15:46:35.182Z,101712.84
2022-12-07T15:48:37.320Z,101716.94
2022-12-07T15:50:39.427Z,101717.09
2022-12-07T15:52:42.386Z,101715.63
2022-12-07T15:54:44.527Z,101710.50
2022-12-07T15:56:46.715Z,101708.59
2022-12-07T15:58:48.997Z,101712.09
2022-12-07T16:00:51.282Z,101709.34
2022-12-07T16:02:53.292Z,101703.84
2022-12-07T16:04:55.866Z,101702.91
2022-12-07T16:06:58.256Z,101704.59
2022-12-07T16:09:00.897Z,101712.59
2022-12-07T16:11:07.344Z,101710.91
2022-12-07T16:13:09.337Z,101711.72
2022-12-07T16:15:11.824Z,101710.53
2022-12-07T16:17:13.910Z,101715.50
2022-12-07T16:19:16.046Z,101724.91
2022-12-07T16:21:23.428Z,101714.69
2022-12-07T16:23:27.996Z,101719.00
2022-12-07T16:25:30.067Z,101713.00
2022-12-07T16:27:32.220Z,101719.59
2022-12-07T16:29:34.097Z,101715.34
2022-12-07T16:31:35.831Z,101709.09
2022-12-07T16:33:39.046Z,101707.13
2022-12-07T16:35:44.949Z,101701.75
2022-12-07T16:37:46.645Z,101705.75
2022-12-07T16:39:48.310Z,101698.16
2022-12-07T16:41:50.169Z,101703.66
2022-12-07T16:43:52.212Z,101699.44
2022-12-07T16:45:54.221Z,101703.03
2022-12-07T16:47:55.938Z,101704.72
2022-12-07T16:49:57.579Z,101705.31
2022-12-07T16:52:18.686Z,101708.69
2022-12-07T16:54:20.954Z,101699.91
2022-12-07T16:56:22.904Z,101699.91
2022-12-07T16:58:24.735Z,101692.78
2022-12-07T17:00:26.463Z,101703.78
2022-12-07T17:02:34.726Z,101690.47
2022-12-07T17:04:37.545Z,101694.78
2022-12-07T17:06:39.973Z,101691.28
2022-12-07T17:08:42.751Z,101690.94
2022-12-07T17:10:45.653Z,101698.00
2022-12-07T17:12:47.512Z,101682.31
2022-12-07T17:15:08.558Z,101684.94
2022-12-07T17:17:15.403Z,101682.38
2022-12-07T17:19:18.963Z,101679.69
2022-12-07T17:21:20.571Z,101683.13
2022-12-07T17:23:22.744Z,101675.69
2022-12-07T17:25:24.555Z,101662.72
2022-12-07T17:27:26.362Z,101666.50
2022-12-07T17:29:28.017Z,101663.34
2022-12-07T17:31:29.907Z,101668.22
2022-12-07T17:33:32.632Z,101665.03
2022-12-07T17:35:34.294Z,101663.13
2022-12-07T17:37:35.977Z,101660.47
2022-12-07T17:39:37.715Z,101664.88
2022-12-07T17:41:58.333Z,101658.00
2022-12-07T17:44:06.075Z,101652.78
2022-12-07T17:46:10.139Z,101649.13
2022-12-07T17:48:12.452Z,101646.00
2022-12-07T17:50:14.221Z,101653.50
2022-12-07T17:52:35.395Z,101645.94
2022-12-07T17:54:37.089Z,101645.69
2022-12-07T17:56:39.424Z,101644.97
2022-12-07T17:58:43.001Z,101645.84
2022-12-07T18:00:44.979Z,101638.75
2022-12-07T18:02:47.029Z,101644.53
2022-12-07T18:04:49.390Z,101642.63
2022-12-07T18:06:52.518Z,101640.16
2022-12-07T18:08:54.910Z,101638.41
2022-12-07T18:11:00.258Z,101635.06
2022-12-07T18:13:24.705Z,101643.66
2022-12-07T18:15:26.350Z,101636.50
2022-12-07T18:17:31.704Z,101641.00
2022-12-07T18:19:37.317Z,101632.19
2022-12-07T18:21:39.952Z,101631.84
2022-12-07T18:23:43.205Z,101628.31
2022-12-07T18:25:49.303Z,101635.44
2022-12-07T18:27:51.060Z,101634.31
2022-12-07T18:29:54.231Z,101638.09
2022-12-07T18:31:56.041Z,101630.53
2022-12-07T18:34:01.921Z,101640.94
2022-12-07T18:36:04.970Z,101634.31
2022-12-07T18:38:06.891Z,101638.63
2022-12-07T18:40:09.409Z,101630.88
2022-12-07T18:42:11.160Z,101629.13
2022-12-07T18:44:17.064Z,101630.97
2022-12-07T18:46:21.415Z,101629.13
2022-12-07T18:48:23.850Z,101625.06
2022-12-07T18:50:25.474Z,101619.31
2022-12-07T18:52:27.892Z,101619.41
2022-12-07T18:54:29.701Z,101615.19
2022-12-07T18:56:31.683Z,101617.09
2022-12-07T18:58:34.074Z,101609.66
2022-12-07T19:00:36.351Z,101614.38
2022-12-07T19:02:38.014Z,101613.25
2022-12-07T19:04:39.744Z,101611.66
2022-12-07T19:06:43.107Z,101608.31
2022-12-07T19:08:45.088Z,101612.53
2022-12-07T19:10:46.799Z,101605.50
2022-12-07T19:12:49.990Z,101603.91
2022-12-07T19:14:51.795Z,101609.19
2022-12-07T19:16:56.754Z,101597.19
2022-12-07T19:18:58.963Z,101595.63
2022-12-07T19:21:04.288Z,101600.03
2022-12-07T19:23:06.055Z,101590.59
2022-12-07T19:25:08.219Z,101595.94
2022-12-07T19:27:10.923Z,101587.41
2022-12-07T19:29:12.642Z,101593.06
2022-12-07T19:31:14.519Z,101589.72
2022-12-07T19:33:16.230Z,101586.97
2022-12-07T19:35:17.919Z,101586.66
2022-12-07T19:37:19.674Z,101577.47
2022-12-07T19:39:21.593Z,101578.13
2022-12-07T19:41:35.775Z,101569.75
2022-12-07T19:43:37.522Z,101580.31
2022-12-07T19:45:39.653Z,101573.53
2022-12-07T19:47:41.917Z,101572.97
2022-12-07T19:49:45.363Z,101570.41
2022-12-07T19:51:50.528Z,101564.50
2022-12-07T19:53:53.211Z,101561.78
2022-12-07T19:55:55.309Z,101561.63
2022-12-07T19:57:57.338Z,101555.72
2022-12-07T19:59:59.838Z,101548.78
2022-12-07T20:02:02.068Z,101552.84
2022-12-07T20:04:10.207Z,101546.53
2022-12-07T20:06:17.727Z,101542.22
2022-12-07T20:08:19.797Z,101539.50
2022-12-07T20:10:26.162Z,101529.84
2022-12-07T20:12:55.320Z,101538.91
2022-12-07T20:14:57.088Z,101539.78
2022-12-07T20:16:59.923Z,101538.75
2022-12-07T20:19:02.138Z,101538.13
2022-12-07T20:21:03.992Z,101538.84
2022-12-07T20:23:05.771Z,101541.97
2022-12-07T20:25:07.701Z,101538.84
2022-12-07T20:27:09.594Z,101539.47
2022-12-07T20:29:17.977Z,101531.56
2022-12-07T20:31:20.812Z,101535.78
2022-12-07T20:33:23.046Z,101531.41
2022-12-07T20:35:24.739Z,101531.69
2022-12-07T20:37:26.404Z,101532.03
2022-12-07T20:39:28.869Z,101531.94
2022-12-07T20:41:48.874Z,101531.84
2022-12-07T20:43:50.482Z,101533.03
2022-12-07T20:45:52.268Z,101525.22
2022-12-07T20:47:54.192Z,101524.69
2022-12-07T20:49:55.839Z,101519.94
2022-12-07T20:51:57.538Z,101518.28
2022-12-07T20:53:59.283Z,101517.31
2022-12-07T20:56:01.144Z,101524.91
2022-12-07T20:58:02.843Z,101519.94
2022-12-07T21:00:10.482Z,101523.34
2022-12-07T21:02:13.550Z,101519.09
2022-12-07T21:04:15.700Z,101519.81
2022-12-07T21:06:18.483Z,101516.13
2022-12-07T21:08:20.397Z,101510.16
2022-12-07T21:10:22.233Z,101509.44
2022-12-07T21:12:34.959Z,101502.84
2022-12-07T21:14:39.986Z,101502.22
2022-12-07T21:16:41.835Z,101500.91
2022-12-07T21:18:45.310Z,101504.06
2022-12-07T21:20:46.989Z,101510.81
2022-12-07T21:22:48.711Z,101502.03
2022-12-07T21:24:50.424Z,101504.06
2022-12-07T21:26:52.330Z,101504.72
2022-12-07T21:28:55.181Z,101494.13
2022-12-07T21:31:14.697Z,101496.06
2022-12-07T21:33:16.604Z,101497.84
2022-12-07T21:35:18.326Z,101487.28
2022-12-07T21:37:20.074Z,101499.22
2022-12-07T21:39:21.823Z,101490.09
2022-12-07T21:41:29.113Z,101486.59
2022-12-07T21:43:30.745Z,101485.00
2022-12-07T21:45:33.143Z,101493.25
2022-12-07T21:47:34.845Z,101489.91
2022-12-07T21:49:36.718Z,101487.56
2022-12-07T21:51:39.537Z,101482.25
2022-12-07T21:53:42.641Z,101485.59
2022-12-07T21:55:45.843Z,101485.88
2022-12-07T21:57:47.677Z,101478.66
2022-12-07T21:59:49.499Z,101478.66
2022-12-07T22:01:52.821Z,101474.53
2022-12-07T22:03:55.093Z,101471.47
2022-12-07T22:06:03.146Z,101479.56
2022-12-07T22:08:05.473Z,101473.38
2022-12-07T22:10:07.978Z,101475.13
2022-12-07T22:12:11.831Z,101472.84
2022-12-07T22:14:32.210Z,101465.84
2022-12-07T22:16:35.084Z,101467.59
2022-12-07T22:18:36.877Z,101466.19
2022-12-07T22:20:39.151Z,101466.72
2022-12-07T22:22:41.194Z,101460.66
2022-12-07T22:24:44.900Z,101467.34
2022-12-07T22:26:46.709Z,101464.31
2022-12-07T22:28:48.712Z,101459.94
2022-12-07T22:30:50.511Z,101458.13
2022-12-07T22:32:52.473Z,101461.09
2022-12-07T22:34:54.216Z,101454.88
2022-12-07T22:36:55.929Z,101463.19
2022-12-07T22:38:57.581Z,101459.06
2022-12-07T22:40:59.600Z,101458.81
2022-12-07T22:43:01.679Z,101457.38
2022-12-07T22:45:03.961Z,101460.81
2022-12-07T22:47:05.979Z,101450.19
2022-12-07T22:49:08.067Z,101453.38
2022-12-07T22:51:40.595Z,101452.28
2022-12-07T22:53:42.191Z,101455.38
2022-12-07T22:55:43.860Z,101446.59
2022-12-07T22:57:45.601Z,101450.22
2022-12-07T22:59:47.548Z,101441.69
2022-12-07T23:01:49.299Z,101431.03
2022-12-07T23:03:51.546Z,101440.34
2022-12-07T23:05:53.835Z,101439.66
2022-12-07T23:07:55.834Z,101434.56
2022-12-07T23:09:57.589Z,101430.00
2022-12-07T23:12:26.658Z,101431.50
2022-12-07T23:14:54.426Z,101433.84
2022-12-07T23:16:56.127Z,101430.34
2022-12-07T23:18:57.879Z,101432.81
2022-12-07T23:20:59.609Z,101438.69
2022-12-07T23:23:01.369Z,101432.72
2022-12-07T23:25:03.387Z,101433.44
2022-12-07T23:27:05.233Z,101430.09
2022-12-07T23:29:06.935Z,101419.69
2022-12-07T23:31:12.398Z,101411.19
2022-12-07T23:33:14.365Z,101412.94
2022-12-07T23:35:16.099Z,101420.31
2022-12-07T23:37:17.989Z,101412.16
2022-12-07T23:39:19.669Z,101423.81
2022-12-07T23:41:24.416Z,101409.94
2022-12-07T23:43:28.218Z,101409.44
2022-12-07T23:45:30.155Z,101406.97
2022-12-07T23:47:31.812Z,101399.66
2022-12-07T23:49:33.506Z,101401.00
2022-12-07T23:51:35.253Z,101393.63
2022-12-07T23:53:38.974Z,101389.50
2022-12-07T23:55:45.826Z,101392.81
2022-12-07T23:57:47.487Z,101386.22
2022-12-07T23:59:49.304Z,101387.28
